| time (UTC) | temp F | wind direction | speed MPH | gust MPH | rain 1hr in | rain 24hr in | rain mn in | humidity % | barometer mb |
| 20260507093041 | 74 | 237 | 3.0 | 5.0 | 0.00 | 0.00 | 0.00 | 31 | 1013.2 |
| 20260507091543 | 74 | 226 | 4.0 | 7.0 | 0.00 | 0.00 | 0.00 | 32 | 1013.3 |
| 20260507090040 | 73 | 221 | 3.0 | 7.0 | 0.00 | 0.00 | 0.00 | 32 | 1013.5 |
| 20260507084536 | 72 | 237 | 2.0 | 4.0 | 0.00 | 0.00 | 0.00 | 38 | 1013.8 |
| 20260507083035 | 70 | 248 | 1.0 | 2.0 | 0.00 | 0.00 | 0.00 | 41 | 1013.9 |
| 20260507081535 | 70 | 231 | 1.0 | 2.0 | 0.00 | 0.00 | 0.00 | 43 | 1013.9 |
| 20260507080043 | 70 | 231 | 0.0 | 2.0 | 0.00 | 0.00 | 0.00 | 40 | 1014.0 |
| 20260507074538 | 71 | 240 | 1.0 | 3.0 | 0.00 | 0.00 | 0.00 | 41 | 1014.0 |
| 20260507073036 | 70 | 0 | 0.0 | 0.0 | 0.00 | 0.00 | 0.00 | 42 | 1014.1 |
| 20260507071535 | 71 | 0 | 0.0 | 2.0 | 0.00 | 0.00 | 0.00 | 42 | 1014.2 |
| 20260507070035 | 72 | 0 | 0.0 | 3.0 | 0.00 | 0.00 | 0.00 | 40 | 1014.3 |
| 20260507064538 | 71 | 0 | 0.0 | 0.0 | 0.00 | 0.00 | 0.00 | 40 | 1014.2 |
| 20260507063037 | 74 | 0 | 0.0 | 3.0 | 0.00 | 0.00 | 0.00 | 37 | 1014.1 |
| 20260507061536 | 74 | 0 | 0.0 | 1.0 | 0.00 | 0.00 | 0.00 | 36 | 1014.1 |
| 20260507060035 | 76 | 0 | 0.0 | 12.0 | 0.00 | 0.00 | 0.00 | 34 | 1014.0 |
| 20260507054537 | 76 | 257 | 5.0 | 11.0 | 0.00 | 0.00 | 0.00 | 34 | 1014.0 |
| 20260507053038 | 76 | 264 | 6.0 | 12.0 | 0.00 | 0.00 | 0.00 | 34 | 1014.0 |
| 20260507051537 | 77 | 242 | 6.0 | 14.0 | 0.00 | 0.00 | 0.00 | 35 | 1014.0 |
| 20260507050038 | 77 | 207 | 8.0 | 13.0 | 0.00 | 0.00 | 0.00 | 36 | 1014.1 |
| 20260507044534 | 76 | 218 | 7.0 | 15.0 | 0.00 | 0.00 | 0.00 | 37 | 1014.1 |
| 20260507043039 | 76 | 285 | 6.0 | 16.0 | 0.00 | 0.00 | 0.00 | 38 | 1014.0 |
| 20260507041538 | 77 | 222 | 7.0 | 13.0 | 0.00 | 0.00 | 0.00 | 36 | 1014.0 |
| 20260507040042 | 77 | 240 | 7.0 | 12.0 | 0.00 | 0.00 | 0.00 | 36 | 1013.9 |
| 20260507034538 | 77 | 237 | 8.0 | 13.0 | 0.00 | 0.00 | 0.00 | 35 | 1013.7 |
| 20260507033035 | 78 | 220 | 7.0 | 13.0 | 0.00 | 0.00 | 0.00 | 36 | 1013.7 |
| 20260507031532 | 78 | 210 | 9.0 | 14.0 | 0.00 | 0.00 | 0.00 | 36 | 1013.6 |
| 20260507030032 | 78 | 240 | 8.0 | 14.0 | 0.00 | 0.00 | 0.00 | 36 | 1013.4 |
| 20260507024538 | 79 | 232 | 7.0 | 13.0 | 0.00 | 0.00 | 0.00 | 37 | 1013.2 |
| 20260507023045 | 79 | 232 | 10.0 | 15.0 | 0.00 | 0.00 | 0.00 | 37 | 1013.2 |
| 20260507021535 | 80 | 231 | 8.0 | 14.0 | 0.00 | 0.00 | 0.00 | 35 | 1013.0 |
| 20260507020041 | 82 | 209 | 5.0 | 10.0 | 0.00 | 0.00 | 0.00 | 33 | 1013.0 |
| 20260507014532 | 85 | 0 | 0.0 | 1.0 | 0.00 | 0.00 | 0.00 | 23 | 1012.9 |
| 20260507013049 | 88 | 0 | 0.0 | 2.0 | 0.00 | 0.00 | 0.00 | 18 | 1012.8 |
| 20260507011537 | 87 | 326 | 0.0 | 3.0 | 0.00 | 0.00 | 0.00 | 18 | 1012.8 |
| 20260507010037 | 89 | 0 | 0.0 | 2.0 | 0.00 | 0.00 | 0.00 | 17 | 1012.8 |
| 20260507004545 | 89 | 110 | 0.0 | 6.0 | 0.00 | 0.00 | 0.00 | 17 | 1012.8 |
| 20260507003042 | 89 | 0 | 0.0 | 2.0 | 0.00 | 0.00 | 0.00 | 17 | 1012.7 |
| 20260507001544 | 89 | 252 | 0.0 | 4.0 | 0.00 | 0.00 | 0.00 | 17 | 1012.8 |
| 20260507000038 | 89 | 6 | 0.0 | 6.0 | 0.00 | 0.00 | 0.00 | 17 | 1012.7 |
| 20260506234538 | 90 | 0 | 0.0 | 3.0 | 0.00 | 0.00 | 0.00 | 17 | 1012.7 |
| 20260506233053 | 88 | 196 | 0.0 | 6.0 | 0.00 | 0.00 | 0.00 | 18 | 1012.7 |
| 20260506231538 | 89 | 8 | 1.0 | 4.0 | 0.00 | 0.00 | 0.00 | 18 | 1012.8 |
| 20260506230047 | 90 | 0 | 1.0 | 4.0 | 0.00 | 0.00 | 0.00 | 17 | 1013.0 |
| 20260506224537 | 87 | 89 | 1.0 | 7.0 | 0.00 | 0.00 | 0.00 | 18 | 1013.1 |
| 20260506223042 | 88 | 357 | 0.0 | 8.0 | 0.00 | 0.00 | 0.00 | 17 | 1013.3 |
| 20260506221535 | 88 | 210 | 0.0 | 4.0 | 0.00 | 0.00 | 0.00 | 17 | 1013.4 |
| 20260506220035 | 88 | 0 | 1.0 | 6.0 | 0.00 | 0.00 | 0.00 | 18 | 1013.6 |
| 20260506214542 | 87 | 102 | 1.0 | 6.0 | 0.00 | 0.00 | 0.00 | 18 | 1013.9 |
| 20260506213049 | 88 | 22 | 1.0 | 7.0 | 0.00 | 0.00 | 0.00 | 17 | 1014.2 |
| 20260506211537 | 89 | 136 | 2.0 | 4.0 | 0.00 | 0.00 | 0.00 | 17 | 1014.3 |
| 20260506210037 | 87 | 81 | 2.0 | 6.0 | 0.00 | 0.00 | 0.00 | 18 | 1014.5 |
| 20260506204535 | 87 | 0 | 0.0 | 4.0 | 0.00 | 0.00 | 0.00 | 18 | 1014.5 |
| 20260506203035 | 85 | 30 | 1.0 | 5.0 | 0.00 | 0.00 | 0.00 | 19 | 1014.7 |
| 20260506201532 | 84 | 205 | 4.0 | 16.0 | 0.00 | 0.00 | 0.00 | 19 | 1015.0 |
| 20260506200038 | 85 | 108 | 0.0 | 5.0 | 0.00 | 0.00 | 0.00 | 19 | 1015.0 |
| 20260506194536 | 83 | 79 | 1.0 | 4.0 | 0.00 | 0.00 | 0.00 | 20 | 1015.2 |
| 20260506193037 | 84 | 44 | 0.0 | 3.0 | 0.00 | 0.00 | 0.00 | 19 | 1015.3 |
| 20260506191541 | 83 | 76 | 2.0 | 6.0 | 0.00 | 0.00 | 0.00 | 22 | 1015.5 |
| 20260506190038 | 81 | 115 | 0.0 | 4.0 | 0.00 | 0.00 | 0.00 | 24 | 1015.8 |
| 20260506184547 | 81 | 18 | 1.0 | 3.0 | 0.00 | 0.00 | 0.00 | 25 | 1015.9 |
| 20260506183050 | 80 | 36 | 1.0 | 4.0 | 0.00 | 0.00 | 0.00 | 26 | 1016.1 |
| 20260506181551 | 79 | 59 | 0.0 | 5.0 | 0.00 | 0.00 | 0.00 | 27 | 1016.1 |
| 20260506180035 | 79 | 82 | 1.0 | 2.0 | 0.00 | 0.00 | 0.00 | 27 | 1016.2 |
| 20260506174541 | 77 | 0 | 0.0 | 4.0 | 0.00 | 0.00 | 0.00 | 28 | 1016.2 |
| 20260506173054 | 76 | 101 | 1.0 | 5.0 | 0.00 | 0.00 | 0.00 | 29 | 1016.2 |
| 20260506171535 | 75 | 106 | 0.0 | 3.0 | 0.00 | 0.00 | 0.00 | 30 | 1016.3 |
| 20260506170039 | 75 | 99 | 0.0 | 2.0 | 0.00 | 0.00 | 0.00 | 30 | 1016.2 |
| 20260506164539 | 74 | 0 | 0.0 | 2.0 | 0.00 | 0.00 | 0.00 | 31 | 1016.1 |
| 20260506163040 | 71 | 0 | 0.0 | 2.0 | 0.00 | 0.00 | 0.00 | 34 | 1016.0 |
| 20260506161535 | 72 | 1 | 0.0 | 2.0 | 0.00 | 0.00 | 0.00 | 34 | 1015.9 |
| 20260506160036 | 70 | 0 | 0.0 | 2.0 | 0.00 | 0.00 | 0.00 | 37 | 1015.8 |
| 20260506154537 | 69 | 323 | 0.0 | 1.0 | 0.00 | 0.00 | 0.00 | 37 | 1015.8 |
| 20260506153055 | 68 | 0 | 0.0 | 1.0 | 0.00 | 0.00 | 0.00 | 38 | 1015.7 |
| 20260506151542 | 67 | 86 | 0.0 | 1.0 | 0.00 | 0.00 | 0.00 | 41 | 1015.8 |
| 20260506150037 | 66 | 0 | 0.0 | 1.0 | 0.00 | 0.00 | 0.00 | 41 | 1015.9 |
| 20260506144534 | 67 | 0 | 0.0 | 1.0 | 0.00 | 0.00 | 0.00 | 41 | 1015.8 |
| 20260506143034 | 66 | 0 | 0.0 | 0.0 | 0.00 | 0.00 | 0.00 | 41 | 1015.6 |
| 20260506141537 | 65 | 0 | 0.0 | 1.0 | 0.00 | 0.00 | 0.00 | 42 | 1015.5 |
| 20260506140038 | 63 | 0 | 0.0 | 0.0 | 0.00 | 0.00 | 0.00 | 46 | 1015.3 |
| 20260506134536 | 59 | 0 | 0.0 | 0.0 | 0.00 | 0.00 | 0.00 | 51 | 1015.3 |
| 20260506133035 | 59 | 0 | 0.0 | 1.0 | 0.00 | 0.00 | 0.00 | 50 | 1015.1 |
| 20260506131538 | 60 | 136 | 1.0 | 9.0 | 0.00 | 0.00 | 0.00 | 49 | 1014.8 |
| 20260506130038 | 59 | 0 | 4.0 | 12.0 | 0.00 | 0.00 | 0.00 | 49 | 1014.6 |
| 20260506124537 | 60 | 0 | 1.0 | 9.0 | 0.00 | 0.00 | 0.00 | 49 | 1014.5 |
| 20260506123037 | 58 | 0 | 2.0 | 9.0 | 0.00 | 0.00 | 0.00 | 52 | 1014.3 |
| 20260506121535 | 55 | 250 | 0.0 | 2.0 | 0.00 | 0.00 | 0.00 | 55 | 1014.4 |
| 20260506120039 | 58 | 0 | 0.0 | 0.0 | 0.00 | 0.00 | 0.00 | 52 | 1014.3 |
| 20260506114538 | 59 | 0 | 1.0 | 8.0 | 0.00 | 0.00 | 0.00 | 50 | 1014.2 |
| 20260506113042 | 59 | 0 | 0.0 | 10.0 | 0.00 | 0.00 | 0.00 | 50 | 1014.1 |
| 20260506111537 | 58 | 210 | 0.0 | 1.0 | 0.00 | 0.00 | 0.00 | 51 | 1014.1 |
| 20260506110036 | 60 | 0 | 1.0 | 11.0 | 0.00 | 0.00 | 0.00 | 48 | 1014.1 |
| 20260506104535 | 61 | 203 | 5.0 | 15.0 | 0.00 | 0.00 | 0.00 | 47 | 1014.0 |
| 20260506103043 | 61 | 250 | 9.0 | 16.0 | 0.00 | 0.00 | 0.00 | 48 | 1014.0 |
| 20260506101538 | 61 | 239 | 10.0 | 17.0 | 0.00 | 0.00 | 0.00 | 48 | 1013.9 |
| 20260506100039 | 61 | 250 | 11.0 | 15.0 | 0.00 | 0.00 | 0.00 | 48 | 1013.7 |
| 20260506094538 | 60 | 212 | 9.0 | 19.0 | 0.00 | 0.00 | 0.00 | 49 | 1013.9 |